createdAt,value
2022-11-13T00:02:06.069Z,12.00
2022-11-13T00:04:51.295Z,13.70
2022-11-13T00:07:36.875Z,10.80
2022-11-13T00:10:22.324Z,12.35
2022-11-13T00:13:07.699Z,14.52
2022-11-13T00:16:03.777Z,12.40
2022-11-13T00:18:49.252Z,11.00
2022-11-13T00:21:34.820Z,10.18
2022-11-13T00:24:19.875Z,10.95
2022-11-13T00:27:05.397Z,11.63
2022-11-13T00:29:50.766Z,11.60
2022-11-13T00:32:37.864Z,10.52
2022-11-13T00:35:23.331Z,11.40
2022-11-13T00:38:08.627Z,12.02
2022-11-13T00:40:54.258Z,9.00
2022-11-13T00:43:39.536Z,10.00
2022-11-13T00:46:24.887Z,11.27
2022-11-13T00:49:10.369Z,12.00
2022-11-13T00:51:55.519Z,9.38
2022-11-13T00:54:40.929Z,10.77
2022-11-13T00:57:26.054Z,11.20
2022-11-13T01:00:11.501Z,11.93
2022-11-13T01:02:58.121Z,9.70
2022-11-13T01:05:44.651Z,10.63
2022-11-13T01:08:30.102Z,10.18
2022-11-13T01:11:19.595Z,8.55
2022-11-13T01:14:04.993Z,10.95
2022-11-13T01:16:50.679Z,10.35
2022-11-13T01:19:36.098Z,11.48
2022-11-13T01:22:21.483Z,9.05
2022-11-13T01:25:06.951Z,9.85
2022-11-13T01:27:52.440Z,10.32
2022-11-13T01:30:38.725Z,12.75
2022-11-13T01:33:24.029Z,11.32
2022-11-13T01:36:13.419Z,12.15
2022-11-13T01:38:59.064Z,12.30
2022-11-13T01:41:44.160Z,10.80
2022-11-13T01:44:52.614Z,9.32
2022-11-13T01:47:37.971Z,9.63
2022-11-13T01:50:23.419Z,10.02
2022-11-13T01:53:09.013Z,10.07
2022-11-13T01:55:54.226Z,10.32
2022-11-13T01:58:40.205Z,9.82
2022-11-13T02:01:25.609Z,8.73
2022-11-13T02:04:11.069Z,8.82
2022-11-13T02:07:00.005Z,10.13
2022-11-13T02:09:49.921Z,8.35
2022-11-13T02:12:37.400Z,8.27
2022-11-13T02:15:24.521Z,8.27
2022-11-13T02:18:11.040Z,11.25
2022-11-13T02:21:09.840Z,8.15
2022-11-13T02:24:14.742Z,7.47
2022-11-13T02:27:01.920Z,7.80
2022-11-13T02:29:47.022Z,9.05
2022-11-13T02:32:32.445Z,8.20
2022-11-13T02:35:37.630Z,7.82
2022-11-13T02:38:23.624Z,7.20
2022-11-13T02:41:09.159Z,10.45
2022-11-13T02:43:54.284Z,7.65
2022-11-13T02:46:39.734Z,8.05
2022-11-13T02:49:25.111Z,8.18
2022-11-13T02:52:10.604Z,7.28
2022-11-13T02:54:56.102Z,9.85
2022-11-13T02:57:41.559Z,7.38
2022-11-13T03:00:27.195Z,10.82
2022-11-13T03:03:12.237Z,7.40
2022-11-13T03:05:57.683Z,7.80
2022-11-13T03:08:42.994Z,8.20
2022-11-13T03:11:28.462Z,6.60
2022-11-13T03:14:14.135Z,6.65
2022-11-13T03:16:59.175Z,8.55
2022-11-13T03:19:44.392Z,7.63
2022-11-13T03:22:29.452Z,8.73
2022-11-13T03:25:14.983Z,8.30
2022-11-13T03:28:00.561Z,6.95
2022-11-13T03:30:47.213Z,6.82
2022-11-13T03:33:32.725Z,7.45
2022-11-13T03:36:17.708Z,7.57
2022-11-13T03:39:03.221Z,7.47
2022-11-13T03:41:48.363Z,8.30
2022-11-13T03:44:33.392Z,7.05
2022-11-13T03:47:18.586Z,8.43
2022-11-13T03:50:04.030Z,6.18
2022-11-13T03:52:49.132Z,6.30
2022-11-13T03:55:34.382Z,6.78
2022-11-13T03:58:20.734Z,6.10
2022-11-13T04:01:05.985Z,5.75
2022-11-13T04:03:51.108Z,6.30
2022-11-13T04:06:36.555Z,8.25
2022-11-13T04:09:21.903Z,7.00
2022-11-13T04:12:07.376Z,7.57
2022-11-13T04:14:52.508Z,7.22
2022-11-13T04:17:37.824Z,6.25
2022-11-13T04:20:23.445Z,5.63
2022-11-13T04:23:12.495Z,7.28
2022-11-13T04:25:57.805Z,6.03
2022-11-13T04:28:43.441Z,6.97
2022-11-13T04:31:28.819Z,6.45
2022-11-13T04:34:14.327Z,8.60
2022-11-13T04:36:59.703Z,6.95
2022-11-13T04:39:45.341Z,8.35
2022-11-13T04:42:49.026Z,6.78
2022-11-13T04:45:34.369Z,5.00
2022-11-13T04:48:19.711Z,6.07
2022-11-13T04:51:05.371Z,5.88
2022-11-13T04:53:50.483Z,5.68
2022-11-13T04:56:35.912Z,6.85
2022-11-13T04:59:21.190Z,4.60
2022-11-13T05:02:06.767Z,4.53
2022-11-13T05:04:52.294Z,4.93
2022-11-13T05:07:37.733Z,5.53
2022-11-13T05:10:22.906Z,5.70
2022-11-13T05:13:08.251Z,5.28
2022-11-13T05:16:00.122Z,6.38
2022-11-13T05:18:45.510Z,5.40
2022-11-13T05:21:30.843Z,5.60
2022-11-13T05:24:16.191Z,5.88
2022-11-13T05:27:01.868Z,6.22
2022-11-13T05:29:46.920Z,5.88
2022-11-13T05:32:32.575Z,6.25
2022-11-13T05:35:18.044Z,5.35
2022-11-13T05:38:03.607Z,5.15
2022-11-13T05:40:49.078Z,5.47
2022-11-13T05:43:34.867Z,5.90
2022-11-13T05:46:24.065Z,4.93
2022-11-13T05:49:09.848Z,4.88
2022-11-13T05:51:55.492Z,6.43
2022-11-13T05:54:40.612Z,4.90
2022-11-13T05:57:25.968Z,5.40
2022-11-13T06:00:11.696Z,5.10
2022-11-13T06:02:57.277Z,5.30
2022-11-13T06:05:42.580Z,5.57
2022-11-13T06:08:28.461Z,5.47
2022-11-13T06:11:15.131Z,5.15
2022-11-13T06:14:00.975Z,5.65
2022-11-13T06:16:46.475Z,4.88
2022-11-13T06:19:31.597Z,4.95
2022-11-13T06:22:16.809Z,6.38
2022-11-13T06:25:02.137Z,5.43
2022-11-13T06:27:47.573Z,6.38
2022-11-13T06:30:32.898Z,6.32
2022-11-13T06:33:18.243Z,4.97
2022-11-13T06:36:04.512Z,6.22
2022-11-13T06:38:50.257Z,7.30
2022-11-13T06:41:35.755Z,4.95
2022-11-13T06:44:20.888Z,5.30
2022-11-13T06:47:06.309Z,5.50
2022-11-13T06:49:51.792Z,5.30
2022-11-13T06:52:37.095Z,5.22
2022-11-13T06:55:22.496Z,5.80
2022-11-13T06:58:07.999Z,5.00
2022-11-13T07:00:53.702Z,5.10
2022-11-13T07:03:39.476Z,5.15
2022-11-13T07:06:24.844Z,5.93
2022-11-13T07:09:10.201Z,7.28
2022-11-13T07:11:55.710Z,5.45
2022-11-13T07:14:40.979Z,6.15
2022-11-13T07:17:28.022Z,6.18
2022-11-13T07:20:13.095Z,6.13
2022-11-13T07:22:59.114Z,5.47
2022-11-13T07:25:44.548Z,6.13
2022-11-13T07:28:30.491Z,6.00
2022-11-13T07:31:16.863Z,5.70
2022-11-13T07:34:01.930Z,5.65
2022-11-13T07:36:47.414Z,5.68
2022-11-13T07:39:32.620Z,6.05
2022-11-13T07:42:17.790Z,5.47
2022-11-13T07:45:03.549Z,5.57
2022-11-13T07:47:49.002Z,6.47
2022-11-13T07:50:35.439Z,6.53
2022-11-13T07:53:21.320Z,6.78
2022-11-13T07:56:06.779Z,6.05
2022-11-13T07:58:52.069Z,8.20
2022-11-13T08:01:38.434Z,6.35
2022-11-13T08:04:23.581Z,6.43
2022-11-13T08:07:10.652Z,5.97
2022-11-13T08:09:56.163Z,6.90
2022-11-13T08:12:41.491Z,6.10
2022-11-13T08:15:27.102Z,6.65
2022-11-13T08:18:12.575Z,6.07
2022-11-13T08:21:00.349Z,7.72
2022-11-13T08:23:45.412Z,6.20
2022-11-13T08:26:30.893Z,7.75
2022-11-13T08:29:16.261Z,6.03
2022-11-13T08:32:01.700Z,6.70
2022-11-13T08:34:47.208Z,6.90
2022-11-13T08:37:33.012Z,5.95
2022-11-13T08:40:18.268Z,8.07
2022-11-13T08:43:04.558Z,6.93
2022-11-13T08:45:50.180Z,6.28
2022-11-13T08:48:35.553Z,6.45
2022-11-13T08:51:21.044Z,7.03
2022-11-13T08:54:06.712Z,7.13
2022-11-13T08:56:56.157Z,5.53
2022-11-13T08:59:43.277Z,6.22
2022-11-13T09:02:28.420Z,9.23
2022-11-13T09:05:14.212Z,6.38
2022-11-13T09:08:00.342Z,6.60
2022-11-13T09:10:45.763Z,6.50
2022-11-13T09:13:31.351Z,6.32
2022-11-13T09:16:16.739Z,5.93
2022-11-13T09:19:02.991Z,6.05
2022-11-13T09:21:48.092Z,10.75
2022-11-13T09:24:33.325Z,6.50
2022-11-13T09:27:18.768Z,5.30
2022-11-13T09:30:04.067Z,7.93
2022-11-13T09:32:52.607Z,8.65
2022-11-13T09:35:37.900Z,6.63
2022-11-13T09:38:23.493Z,6.70
2022-11-13T09:41:10.385Z,5.85
2022-11-13T09:44:00.024Z,6.85
2022-11-13T09:46:51.732Z,6.28
2022-11-13T09:49:39.969Z,6.75
2022-11-13T09:52:31.095Z,6.50
2022-11-13T09:55:17.766Z,6.20
2022-11-13T09:58:10.565Z,6.82
2022-11-13T10:00:56.064Z,7.38
2022-11-13T10:04:00.361Z,6.53
2022-11-13T10:06:57.918Z,5.80
2022-11-13T10:09:43.140Z,7.63
2022-11-13T10:12:30.241Z,7.07
2022-11-13T10:15:16.320Z,6.03
2022-11-13T10:18:13.049Z,5.60
2022-11-13T10:21:15.117Z,5.97
2022-11-13T10:24:03.425Z,6.15
2022-11-13T10:26:49.120Z,9.05
2022-11-13T10:29:35.356Z,6.93
2022-11-13T10:32:21.913Z,6.47
2022-11-13T10:35:07.203Z,7.22
2022-11-13T10:37:57.115Z,7.68
2022-11-13T10:40:42.304Z,6.85
2022-11-13T10:43:28.269Z,6.25
2022-11-13T10:46:19.386Z,7.03
2022-11-13T10:49:12.377Z,6.63
2022-11-13T10:51:58.820Z,6.20
2022-11-13T10:54:44.241Z,6.15
2022-11-13T10:57:30.089Z,6.03
2022-11-13T11:00:30.944Z,7.43
2022-11-13T11:03:18.017Z,6.85
2022-11-13T11:06:04.507Z,7.05
2022-11-13T11:08:49.874Z,6.05
2022-11-13T11:11:53.939Z,7.07
2022-11-13T11:14:42.569Z,6.72
2022-11-13T11:17:45.780Z,6.32
2022-11-13T11:20:30.930Z,6.88
2022-11-13T11:23:25.497Z,7.50
2022-11-13T11:26:21.636Z,8.15
2022-11-13T11:29:26.854Z,6.78
2022-11-13T11:32:15.999Z,7.28
2022-11-13T11:35:07.068Z,6.05
2022-11-13T11:38:01.152Z,6.35
2022-11-13T11:40:48.330Z,6.15
2022-11-13T11:43:42.822Z,7.18
2022-11-13T11:46:29.591Z,6.43
2022-11-13T11:49:15.041Z,6.63
2022-11-13T11:52:02.947Z,7.43
2022-11-13T11:54:53.484Z,6.45
2022-11-13T11:57:57.915Z,7.10
2022-11-13T12:00:54.712Z,6.72
2022-11-13T12:03:52.520Z,6.70
2022-11-13T12:06:55.687Z,7.32
2022-11-13T12:10:04.542Z,7.90
2022-11-13T12:12:58.828Z,7.38
2022-11-13T12:15:46.789Z,7.22
2022-11-13T12:18:50.517Z,6.35
2022-11-13T12:21:55.853Z,8.57
2022-11-13T12:24:59.573Z,6.88
2022-11-13T12:27:53.658Z,7.60
2022-11-13T12:30:50.996Z,6.63
2022-11-13T12:33:42.056Z,7.45
2022-11-13T12:36:27.929Z,7.57
2022-11-13T12:39:33.562Z,6.72
2022-11-13T12:42:18.606Z,7.47
2022-11-13T12:45:09.967Z,8.07
2022-11-13T12:47:55.532Z,6.95
2022-11-13T12:50:40.670Z,6.25
2022-11-13T12:53:29.224Z,7.47
2022-11-13T12:56:16.596Z,8.15
2022-11-13T12:59:30.437Z,7.38
2022-11-13T13:02:34.860Z,7.50
2022-11-13T13:05:32.161Z,7.10
2022-11-13T13:08:26.915Z,7.05
2022-11-13T13:11:15.329Z,7.72
2022-11-13T13:14:06.870Z,7.88
2022-11-13T13:16:52.120Z,6.93
2022-11-13T13:19:37.920Z,6.35
2022-11-13T13:22:29.792Z,8.15
2022-11-13T13:25:21.302Z,7.18
2022-11-13T13:28:09.437Z,7.63
2022-11-13T13:30:58.712Z,7.03
2022-11-13T13:33:52.652Z,8.43
2022-11-13T13:36:58.480Z,9.07
2022-11-13T13:40:02.339Z,7.78
2022-11-13T13:43:06.117Z,7.82
2022-11-13T13:45:51.283Z,7.40
2022-11-13T13:48:40.825Z,7.55
2022-11-13T13:51:41.078Z,8.15
2022-11-13T13:54:27.802Z,6.40
2022-11-13T13:57:14.740Z,6.78
2022-11-13T14:00:00.624Z,6.70
2022-11-13T14:02:47.061Z,6.80
2022-11-13T14:05:34.616Z,6.68
2022-11-13T14:08:21.742Z,6.53
2022-11-13T14:11:29.596Z,6.97
2022-11-13T14:14:19.903Z,7.85
2022-11-13T14:17:05.563Z,8.20
2022-11-13T14:19:51.778Z,10.05
2022-11-13T14:22:37.713Z,7.80
2022-11-13T14:25:25.414Z,7.05
2022-11-13T14:28:18.099Z,6.88
2022-11-13T14:31:06.641Z,6.38
2022-11-13T14:33:52.200Z,7.45
2022-11-13T14:36:38.307Z,6.53
2022-11-13T14:39:27.288Z,7.20
2022-11-13T14:42:23.224Z,6.85
2022-11-13T14:45:19.831Z,6.75
2022-11-13T14:48:18.874Z,7.07
2022-11-13T14:51:05.311Z,7.05
2022-11-13T14:53:57.189Z,6.32
2022-11-13T14:56:43.085Z,6.65
2022-11-13T14:59:29.359Z,6.25
2022-11-13T15:02:14.839Z,6.20
2022-11-13T15:05:00.040Z,6.43
2022-11-13T15:07:45.829Z,7.35
2022-11-13T15:10:31.785Z,7.35
2022-11-13T15:13:20.727Z,6.63
2022-11-13T15:16:07.159Z,8.50
2022-11-13T15:18:53.860Z,6.60
2022-11-13T15:21:39.788Z,6.88
2022-11-13T15:24:26.941Z,7.28
2022-11-13T15:27:16.082Z,6.72
2022-11-13T15:30:01.163Z,7.65
2022-11-13T15:32:48.943Z,7.03
2022-11-13T15:35:34.506Z,7.38
2022-11-13T15:38:19.703Z,6.22
2022-11-13T15:41:10.484Z,7.20
2022-11-13T15:43:56.331Z,6.15
2022-11-13T15:46:43.071Z,6.38
2022-11-13T15:49:28.719Z,7.15
2022-11-13T15:52:17.223Z,8.10
2022-11-13T15:55:03.192Z,6.80
2022-11-13T15:57:49.233Z,7.85
2022-11-13T16:00:35.057Z,7.85
2022-11-13T16:03:20.640Z,6.72
2022-11-13T16:06:11.292Z,7.70
2022-11-13T16:08:56.411Z,8.25
2022-11-13T16:11:42.177Z,7.50
2022-11-13T16:14:27.665Z,8.55
2022-11-13T16:17:14.358Z,8.90
2022-11-13T16:19:59.848Z,8.70
2022-11-13T16:22:45.485Z,7.80
2022-11-13T16:25:30.619Z,8.88
2022-11-13T16:28:16.675Z,8.27
2022-11-13T16:31:02.096Z,8.52
2022-11-13T16:33:47.625Z,7.43
2022-11-13T16:36:33.082Z,9.00
2022-11-13T16:39:18.517Z,7.80
2022-11-13T16:42:03.647Z,8.65
2022-11-13T16:44:48.941Z,9.90
2022-11-13T16:47:34.506Z,8.65
2022-11-13T16:50:21.625Z,8.38
2022-11-13T16:53:08.948Z,8.70
2022-11-13T16:55:55.096Z,7.60
2022-11-13T16:58:41.081Z,8.27
2022-11-13T17:01:29.392Z,7.50
2022-11-13T17:04:14.830Z,7.68
2022-11-13T17:07:00.499Z,7.80
2022-11-13T17:09:58.805Z,8.73
2022-11-13T17:12:50.864Z,8.82
2022-11-13T17:15:39.293Z,8.25
2022-11-13T17:18:24.699Z,9.50
2022-11-13T17:21:09.911Z,8.77
2022-11-13T17:24:04.520Z,9.50
2022-11-13T17:26:52.459Z,11.45
2022-11-13T17:29:38.960Z,9.38
2022-11-13T17:32:24.416Z,11.85
2022-11-13T17:35:11.652Z,9.35
2022-11-13T17:37:57.413Z,9.63
2022-11-13T17:40:43.519Z,9.15
2022-11-13T17:43:29.383Z,11.07
2022-11-13T17:46:16.817Z,9.13
2022-11-13T17:49:02.222Z,8.77
2022-11-13T17:51:47.322Z,11.63
2022-11-13T17:54:35.652Z,11.73
2022-11-13T17:57:26.583Z,11.18
2022-11-13T18:00:12.505Z,9.15
2022-11-13T18:02:57.739Z,9.57
2022-11-13T18:05:46.589Z,9.75
2022-11-13T18:08:32.268Z,9.55
2022-11-13T18:11:22.279Z,12.07
2022-11-13T18:14:08.595Z,10.52
2022-11-13T18:16:53.687Z,11.05
2022-11-13T18:19:38.843Z,9.95
2022-11-13T18:22:24.170Z,10.65
2022-11-13T18:25:09.534Z,10.55
2022-11-13T18:27:54.702Z,11.25
2022-11-13T18:30:39.813Z,11.52
2022-11-13T18:33:25.547Z,10.38
2022-11-13T18:36:10.718Z,9.05
2022-11-13T18:38:56.091Z,11.35
2022-11-13T18:41:41.107Z,10.15
2022-11-13T18:44:26.722Z,12.93
2022-11-13T18:47:12.129Z,11.05
2022-11-13T18:49:58.321Z,11.63
2022-11-13T18:52:43.809Z,10.10
2022-11-13T18:55:29.185Z,10.38
2022-11-13T18:58:14.433Z,9.80
2022-11-13T19:01:08.102Z,10.57
2022-11-13T19:06:59.465Z,10.18
2022-11-13T19:09:46.090Z,11.00
2022-11-13T19:12:31.523Z,9.63
2022-11-13T19:15:17.058Z,11.52
2022-11-13T19:18:02.568Z,11.68
2022-11-13T19:20:47.628Z,9.55
2022-11-13T19:23:33.068Z,9.82
2022-11-13T19:26:18.765Z,11.68
2022-11-13T19:29:04.183Z,10.98
2022-11-13T19:31:49.994Z,12.48
2022-11-13T19:34:35.375Z,11.50
2022-11-13T19:37:20.719Z,11.68
2022-11-13T19:40:06.553Z,11.68
2022-11-13T19:42:53.220Z,12.23
2022-11-13T19:45:38.623Z,9.85
2022-11-13T19:48:23.714Z,19.83
2022-11-13T19:51:13.897Z,10.77
2022-11-13T19:53:59.684Z,12.15
2022-11-13T19:56:45.109Z,11.07
2022-11-13T19:59:30.212Z,10.13
2022-11-13T20:02:15.601Z,10.60
2022-11-13T20:05:00.894Z,11.43
2022-11-13T20:07:46.548Z,13.82
2022-11-13T20:10:31.868Z,16.50
2022-11-13T20:13:17.286Z,15.70
2022-11-13T20:16:03.805Z,12.68
2022-11-13T20:18:49.872Z,13.75
2022-11-13T20:21:35.300Z,13.85
2022-11-13T20:24:20.525Z,14.80
2022-11-13T20:27:05.839Z,14.95
2022-11-13T20:29:51.513Z,18.10
2022-11-13T20:32:39.976Z,13.00
2022-11-13T20:35:25.536Z,12.82
2022-11-13T20:38:10.895Z,12.52
2022-11-13T20:40:56.394Z,14.93
2022-11-13T20:43:41.561Z,14.68
2022-11-13T20:46:26.722Z,14.00
2022-11-13T20:49:12.104Z,14.23
2022-11-13T20:51:57.533Z,15.10
2022-11-13T20:54:42.629Z,14.75
2022-11-13T20:57:27.829Z,17.80
2022-11-13T21:00:13.185Z,12.70
2022-11-13T21:02:58.379Z,16.75
2022-11-13T21:05:43.490Z,15.80
2022-11-13T21:08:29.244Z,14.02
2022-11-13T21:11:16.200Z,16.38
2022-11-13T21:14:01.413Z,15.05
2022-11-13T21:16:46.688Z,14.85
2022-11-13T21:19:32.054Z,16.33
2022-11-13T21:22:17.255Z,15.80
2022-11-13T21:25:02.768Z,17.45
2022-11-13T21:27:48.093Z,17.23
2022-11-13T21:30:33.604Z,17.33
2022-11-13T21:33:18.833Z,18.30
2022-11-13T21:36:08.130Z,19.10
2022-11-13T21:38:54.114Z,16.98
2022-11-13T21:41:39.440Z,15.57
2022-11-13T21:44:24.754Z,21.25
2022-11-13T21:47:13.088Z,19.30
2022-11-13T21:49:58.136Z,20.48
2022-11-13T21:52:43.433Z,17.05
2022-11-13T21:55:28.632Z,18.75
2022-11-13T21:58:14.845Z,17.83
2022-11-13T22:00:59.974Z,19.48
2022-11-13T22:03:45.409Z,18.63
2022-11-13T22:06:31.595Z,19.50
2022-11-13T22:09:25.874Z,18.95
2022-11-13T22:12:11.306Z,17.90
2022-11-13T22:14:56.676Z,18.27
2022-11-13T22:17:42.526Z,16.98
2022-11-13T22:20:27.606Z,15.95
2022-11-13T22:23:13.188Z,16.05
2022-11-13T22:26:02.251Z,16.90
2022-11-13T22:28:47.934Z,16.08
2022-11-13T22:31:33.830Z,19.42
2022-11-13T22:34:19.007Z,16.23
2022-11-13T22:37:04.463Z,17.02
2022-11-13T22:39:49.943Z,16.80
2022-11-13T22:42:35.395Z,18.80
2022-11-13T22:45:24.559Z,16.75
2022-11-13T22:48:10.734Z,20.08
2022-11-13T22:50:56.194Z,22.00
2022-11-13T22:53:42.579Z,17.77
2022-11-13T22:56:29.092Z,20.67
2022-11-13T22:59:14.232Z,19.30
2022-11-13T23:01:59.520Z,15.27
2022-11-13T23:04:44.794Z,20.30
2022-11-13T23:07:30.536Z,17.63
2022-11-13T23:10:15.991Z,21.77
2022-11-13T23:13:01.263Z,17.45
2022-11-13T23:15:46.756Z,18.75
2022-11-13T23:18:32.244Z,18.88
2022-11-13T23:21:17.864Z,19.65
2022-11-13T23:24:03.632Z,18.42
2022-11-13T23:26:48.846Z,18.42
2022-11-13T23:29:34.125Z,19.17
2022-11-13T23:32:19.540Z,18.65
2022-11-13T23:35:04.739Z,18.88
2022-11-13T23:37:50.242Z,18.48
2022-11-13T23:40:35.686Z,21.02
2022-11-13T23:43:21.648Z,21.73
2022-11-13T23:46:06.950Z,21.48
2022-11-13T23:48:52.602Z,19.50
2022-11-13T23:51:37.742Z,19.85
2022-11-13T23:54:23.208Z,19.73
2022-11-13T23:57:08.503Z,19.67
2022-11-13T23:59:53.898Z,20.13
